HVN529 VVNB-ZGGG
Flight info
| Callsign | HVN529 |
|---|---|
| Flight time | N/A |
| Altitude | 41100 |
| Route | NAKHA3A NAKHA R474 GYA GYA8 |
| Aircraft | A359/H-SDE2E3GHIJ3J4J5LM1ORWXY/LB1D1 |
Departure
| Time | 2026-05-06 20:24 |
|---|---|
| Airport | Noi Bai International Airport (VVNB) |
Arrival
| Time | N/A |
|---|---|
| Airport | Guangzhou Baiyun International Airport (ZGGG) |
| Time | Latitude | Longitude | Altitude | Speed | Heading |
|---|---|---|---|---|---|
| 2026-05-06 20:14 | 21.21875 | 105.79433 | 55 ft | 0 kts | 197° |
| 2026-05-06 20:15 | 21.21888 | 105.79437 | 63 ft | 3 kts | 198° |
| 2026-05-06 20:15 | 21.21908 | 105.79444 | 46 ft | 3 kts | 199° |
| 2026-05-06 20:15 | 21.21927 | 105.79452 | 47 ft | 3 kts | 199° |
| 2026-05-06 20:16 | 21.21945 | 105.79458 | 47 ft | 3 kts | 210° |
| 2026-05-06 20:16 | 21.21958 | 105.79470 | 47 ft | 3 kts | 259° |
| 2026-05-06 20:16 | 21.21956 | 105.79490 | 47 ft | 3 kts | 289° |
| 2026-05-06 20:16 | 21.21952 | 105.79505 | 47 ft | 0 kts | 286° |
| 2026-05-06 20:19 | 21.21954 | 105.79497 | 47 ft | 5 kts | 285° |
| 2026-05-06 20:19 | 21.21973 | 105.79425 | 55 ft | 12 kts | 286° |
| 2026-05-06 20:19 | 21.22002 | 105.79324 | 51 ft | 16 kts | 288° |
| 2026-05-06 20:20 | 21.22037 | 105.79206 | 50 ft | 18 kts | 287° |
| 2026-05-06 20:20 | 21.22076 | 105.79070 | 54 ft | 20 kts | 288° |
| 2026-05-06 20:20 | 21.22110 | 105.78959 | 52 ft | 17 kts | 288° |
| 2026-05-06 20:20 | 21.22142 | 105.78851 | 49 ft | 15 kts | 287° |
| 2026-05-06 20:21 | 21.22174 | 105.78737 | 51 ft | 15 kts | 286° |
| 2026-05-06 20:21 | 21.22200 | 105.78642 | 50 ft | 14 kts | 287° |
| 2026-05-06 20:21 | 21.22257 | 105.78611 | 48 ft | 14 kts | 355° |
| 2026-05-06 20:21 | 21.22364 | 105.78614 | 54 ft | 10 kts | 15° |
| 2026-05-06 20:22 | 21.22434 | 105.78634 | 54 ft | 11 kts | 15° |
| 2026-05-06 20:22 | 21.22459 | 105.78677 | 48 ft | 5 kts | 105° |
| 2026-05-06 20:22 | 21.22447 | 105.78718 | 55 ft | 0 kts | 107° |
| 2026-05-06 20:23 | 21.22446 | 105.78722 | 51 ft | 6 kts | 107° |
| 2026-05-06 20:23 | 21.22367 | 105.78996 | 51 ft | 76 kts | 107° |
| 2026-05-06 20:23 | 21.22140 | 105.79774 | 51 ft | 143 kts | 107° |
| 2026-05-06 20:24 | 21.21811 | 105.80967 | 300 ft | 178 kts | 105° |
| 2026-05-06 20:24 | 21.21496 | 105.82223 | 1104 ft | 175 kts | 108° |
| 2026-05-06 20:24 | 21.21137 | 105.83538 | 1580 ft | 196 kts | 110° |
| 2026-05-06 20:24 | 21.20720 | 105.84990 | 2137 ft | 207 kts | 110° |
| 2026-05-06 20:25 | 21.20298 | 105.86477 | 2876 ft | 211 kts | 110° |
| 2026-05-06 20:25 | 21.19866 | 105.88016 | 3485 ft | 220 kts | 110° |
| 2026-05-06 20:25 | 21.19414 | 105.89624 | 4021 ft | 234 kts | 110° |
| 2026-05-06 20:25 | 21.18928 | 105.91356 | 4396 ft | 259 kts | 110° |
| 2026-05-06 20:26 | 21.18392 | 105.93275 | 4970 ft | 274 kts | 109° |
| 2026-05-06 20:26 | 21.17848 | 105.95269 | 5705 ft | 284 kts | 108° |
| 2026-05-06 20:26 | 21.17621 | 105.97403 | 6400 ft | 295 kts | 86° |
| 2026-05-06 20:26 | 21.18243 | 105.99501 | 7172 ft | 299 kts | 58° |
| 2026-05-06 20:27 | 21.19670 | 106.01105 | 8027 ft | 298 kts | 32° |
| 2026-05-06 20:27 | 21.21436 | 106.02263 | 8965 ft | 298 kts | 26° |
| 2026-05-06 20:27 | 21.23244 | 106.03358 | 9896 ft | 300 kts | 26° |
| 2026-05-06 20:27 | 21.25100 | 106.04485 | 10458 ft | 316 kts | 27° |
| 2026-05-06 20:28 | 21.27080 | 106.05697 | 10781 ft | 339 kts | 27° |
| 2026-05-06 20:28 | 21.29181 | 106.06996 | 11130 ft | 357 kts | 27° |
| 2026-05-06 20:28 | 21.31358 | 106.08350 | 11713 ft | 365 kts | 28° |
| 2026-05-06 20:28 | 21.33572 | 106.09731 | 12382 ft | 371 kts | 28° |
| 2026-05-06 20:29 | 21.35779 | 106.11109 | 13072 ft | 375 kts | 28° |
| 2026-05-06 20:29 | 21.38042 | 106.12523 | 13762 ft | 379 kts | 28° |
| 2026-05-06 20:29 | 21.40333 | 106.13954 | 14374 ft | 382 kts | 28° |
| 2026-05-06 20:29 | 21.42644 | 106.15399 | 14997 ft | 386 kts | 28° |
| 2026-05-06 20:30 | 21.44968 | 106.16852 | 15605 ft | 389 kts | 28° |
| 2026-05-06 20:30 | 21.49690 | 106.19807 | 16855 ft | 395 kts | 28° |
| 2026-05-06 20:30 | 21.52074 | 106.21299 | 17506 ft | 398 kts | 28° |
| 2026-05-06 20:31 | 21.54481 | 106.22805 | 18137 ft | 402 kts | 28° |
| 2026-05-06 20:31 | 21.56910 | 106.24327 | 18627 ft | 406 kts | 28° |
| 2026-05-06 20:31 | 21.59367 | 106.25867 | 19110 ft | 410 kts | 28° |
| 2026-05-06 20:31 | 21.61848 | 106.27423 | 19584 ft | 414 kts | 28° |
| 2026-05-06 20:32 | 21.64346 | 106.28989 | 20070 ft | 418 kts | 28° |
| 2026-05-06 20:32 | 21.66870 | 106.30572 | 20541 ft | 422 kts | 28° |
| 2026-05-06 20:32 | 21.69415 | 106.32170 | 21050 ft | 425 kts | 28° |
| 2026-05-06 20:32 | 21.71986 | 106.33784 | 21561 ft | 429 kts | 28° |
| 2026-05-06 20:33 | 21.74571 | 106.35412 | 22055 ft | 433 kts | 28° |
| 2026-05-06 20:33 | 21.77190 | 106.37058 | 22571 ft | 437 kts | 28° |
| 2026-05-06 20:33 | 21.79819 | 106.38712 | 23074 ft | 440 kts | 28° |
| 2026-05-06 20:33 | 21.82440 | 106.40360 | 23532 ft | 444 kts | 28° |
| 2026-05-06 20:34 | 21.85120 | 106.42046 | 23916 ft | 448 kts | 28° |
| 2026-05-06 20:34 | 21.87818 | 106.43746 | 24329 ft | 450 kts | 27° |
| 2026-05-06 20:34 | 21.90530 | 106.45450 | 24762 ft | 453 kts | 27° |
| 2026-05-06 20:34 | 21.93263 | 106.47172 | 25201 ft | 456 kts | 27° |
| 2026-05-06 20:35 | 21.95997 | 106.48948 | 25716 ft | 460 kts | 30° |
| 2026-05-06 20:35 | 21.98615 | 106.50960 | 26211 ft | 465 kts | 34° |
| 2026-05-06 20:35 | 22.01180 | 106.53107 | 26701 ft | 469 kts | 36° |
| 2026-05-06 20:35 | 22.03729 | 106.55332 | 27207 ft | 473 kts | 37° |
| 2026-05-06 20:36 | 22.06274 | 106.57590 | 27702 ft | 476 kts | 37° |
| 2026-05-06 20:36 | 22.08839 | 106.59870 | 28191 ft | 479 kts | 37° |
| 2026-05-06 20:36 | 22.11431 | 106.62164 | 28701 ft | 483 kts | 36° |
| 2026-05-06 20:36 | 22.13159 | 106.63686 | 28997 ft | 485 kts | 36° |
| 2026-05-06 20:37 | 22.16643 | 106.66768 | 29602 ft | 491 kts | 38° |
| 2026-05-06 20:37 | 22.19159 | 106.69291 | 30036 ft | 496 kts | 40° |
| 2026-05-06 20:37 | 22.21651 | 106.71880 | 30412 ft | 499 kts | 41° |
| 2026-05-06 20:37 | 22.24139 | 106.74505 | 30818 ft | 501 kts | 41° |
| 2026-05-06 20:38 | 22.25789 | 106.76260 | 31103 ft | 503 kts | 41° |
| 2026-05-06 20:38 | 22.28285 | 106.78924 | 31486 ft | 505 kts | 41° |
| 2026-05-06 20:38 | 22.30787 | 106.81607 | 31842 ft | 508 kts | 42° |
| 2026-05-06 20:38 | 22.33106 | 106.84508 | 32184 ft | 514 kts | 51° |
| 2026-05-06 20:39 | 22.35011 | 106.87794 | 32528 ft | 520 kts | 61° |
| 2026-05-06 20:39 | 22.36376 | 106.91436 | 32856 ft | 525 kts | 72° |
| 2026-05-06 20:39 | 22.37276 | 106.95253 | 33170 ft | 528 kts | 76° |
| 2026-05-06 20:39 | 22.38269 | 107.00421 | 33581 ft | 532 kts | 78° |
| 2026-05-06 20:40 | 22.38733 | 107.03072 | 33782 ft | 533 kts | 78° |
| 2026-05-06 20:40 | 22.39401 | 107.06990 | 34163 ft | 533 kts | 78° |
| 2026-05-06 20:40 | 22.40071 | 107.10927 | 34563 ft | 531 kts | 78° |
| 2026-05-06 20:40 | 22.40749 | 107.14849 | 34936 ft | 530 kts | 78° |
| 2026-05-06 20:41 | 22.41435 | 107.18759 | 35307 ft | 529 kts | 78° |
| 2026-05-06 20:41 | 22.42128 | 107.22664 | 35688 ft | 528 kts | 78° |
| 2026-05-06 20:41 | 22.42823 | 107.26561 | 36048 ft | 528 kts | 78° |
| 2026-05-06 20:41 | 22.43521 | 107.30451 | 36389 ft | 527 kts | 77° |
| 2026-05-06 20:42 | 22.44225 | 107.34340 | 36718 ft | 527 kts | 77° |
| 2026-05-06 20:42 | 22.44923 | 107.38177 | 36859 ft | 527 kts | 77° |
| 2026-05-06 20:42 | 22.45628 | 107.42063 | 36877 ft | 526 kts | 77° |
| 2026-05-06 20:43 | 22.47034 | 107.49848 | 36880 ft | 528 kts | 77° |
| 2026-05-06 20:43 | 22.48433 | 107.57635 | 36876 ft | 528 kts | 77° |
| 2026-05-06 20:44 | 22.49830 | 107.65442 | 36884 ft | 528 kts | 78° |
| 2026-05-06 20:44 | 22.51223 | 107.73251 | 36882 ft | 528 kts | 78° |
| 2026-05-06 20:45 | 22.52612 | 107.81062 | 36880 ft | 529 kts | 77° |
| 2026-05-06 20:45 | 22.53990 | 107.88831 | 36884 ft | 529 kts | 77° |
| 2026-05-06 20:46 | 22.55376 | 107.96659 | 36884 ft | 529 kts | 77° |
| 2026-05-06 20:46 | 22.56755 | 108.04479 | 36884 ft | 529 kts | 77° |
| 2026-05-06 20:47 | 22.58130 | 108.12304 | 36882 ft | 529 kts | 77° |
| 2026-05-06 20:47 | 22.59392 | 108.20158 | 36885 ft | 530 kts | 81° |
| 2026-05-06 20:48 | 22.60244 | 108.28084 | 36883 ft | 530 kts | 83° |
| 2026-05-06 20:48 | 22.61048 | 108.36031 | 36884 ft | 530 kts | 82° |
| 2026-05-06 20:49 | 22.61904 | 108.43906 | 36877 ft | 530 kts | 82° |
| 2026-05-06 20:49 | 22.62796 | 108.51818 | 36890 ft | 528 kts | 82° |
| 2026-05-06 20:50 | 22.63689 | 108.59703 | 36889 ft | 527 kts | 82° |
| 2026-05-06 20:50 | 22.64578 | 108.67607 | 36892 ft | 529 kts | 81° |
| 2026-05-06 20:51 | 22.65464 | 108.75528 | 36892 ft | 530 kts | 81° |
| 2026-05-06 20:51 | 22.66344 | 108.83456 | 36891 ft | 530 kts | 81° |
| 2026-05-06 20:52 | 22.67222 | 108.91384 | 36892 ft | 530 kts | 81° |
| 2026-05-06 20:52 | 22.68090 | 108.99267 | 36894 ft | 530 kts | 81° |
| 2026-05-06 20:53 | 22.68958 | 109.07188 | 36898 ft | 530 kts | 81° |
| 2026-05-06 20:53 | 22.69827 | 109.15118 | 36894 ft | 530 kts | 81° |
| 2026-05-06 20:54 | 22.70720 | 109.23041 | 36891 ft | 530 kts | 81° |
| 2026-05-06 20:54 | 22.71616 | 109.30970 | 36893 ft | 530 kts | 81° |
| 2026-05-06 20:55 | 22.72525 | 109.38902 | 36892 ft | 530 kts | 81° |
| 2026-05-06 20:55 | 22.73433 | 109.46774 | 36901 ft | 530 kts | 80° |
| 2026-05-06 20:56 | 22.74345 | 109.54697 | 36894 ft | 530 kts | 81° |
| 2026-05-06 20:56 | 22.75253 | 109.62637 | 36893 ft | 530 kts | 81° |
| 2026-05-06 20:57 | 22.76155 | 109.70565 | 36901 ft | 530 kts | 81° |
| 2026-05-06 20:57 | 22.77047 | 109.78448 | 36901 ft | 530 kts | 81° |
| 2026-05-06 20:58 | 22.77941 | 109.86379 | 36903 ft | 530 kts | 80° |
| 2026-05-06 20:58 | 22.78831 | 109.94317 | 36910 ft | 531 kts | 80° |
| 2026-05-06 20:59 | 22.79721 | 110.02281 | 36906 ft | 533 kts | 80° |
| 2026-05-06 20:59 | 22.80603 | 110.10217 | 36911 ft | 533 kts | 80° |
| 2026-05-06 21:00 | 22.81484 | 110.18193 | 36909 ft | 533 kts | 80° |
| 2026-05-06 21:00 | 22.82363 | 110.26168 | 36916 ft | 533 kts | 80° |
| 2026-05-06 21:01 | 22.83237 | 110.34147 | 36920 ft | 532 kts | 80° |
| 2026-05-06 21:01 | 22.84106 | 110.42114 | 36918 ft | 532 kts | 80° |
| 2026-05-06 21:02 | 22.84972 | 110.50096 | 36917 ft | 532 kts | 80° |
| 2026-05-06 21:02 | 22.85837 | 110.58060 | 36921 ft | 531 kts | 80° |
| 2026-05-06 21:03 | 22.86768 | 110.66010 | 36920 ft | 531 kts | 79° |
| 2026-05-06 21:03 | 22.87718 | 110.73955 | 36923 ft | 532 kts | 79° |
| 2026-05-06 21:04 | 22.88652 | 110.81900 | 36921 ft | 531 kts | 79° |
| 2026-05-06 21:04 | 22.89578 | 110.89856 | 36928 ft | 530 kts | 79° |
| 2026-05-06 21:05 | 22.90490 | 110.97743 | 36925 ft | 530 kts | 79° |
| 2026-05-06 21:05 | 22.91403 | 111.05681 | 36926 ft | 530 kts | 79° |
| 2026-05-06 21:06 | 22.92314 | 111.13624 | 36933 ft | 531 kts | 79° |
| 2026-05-06 21:06 | 22.93222 | 111.21590 | 36923 ft | 532 kts | 80° |
| 2026-05-06 21:07 | 22.94126 | 111.29554 | 36921 ft | 532 kts | 80° |
| 2026-05-06 21:07 | 22.95023 | 111.37515 | 36927 ft | 532 kts | 80° |
| 2026-05-06 21:08 | 22.95914 | 111.45433 | 36925 ft | 532 kts | 80° |
| 2026-05-06 21:08 | 22.96809 | 111.53403 | 36927 ft | 532 kts | 80° |
| 2026-05-06 21:09 | 22.97695 | 111.61371 | 36924 ft | 532 kts | 80° |
| 2026-05-06 21:09 | 22.98565 | 111.69350 | 36927 ft | 532 kts | 80° |
| 2026-05-06 21:10 | 22.99432 | 111.77340 | 36930 ft | 532 kts | 80° |
| 2026-05-06 21:10 | 23.00295 | 111.85323 | 36932 ft | 532 kts | 80° |
| 2026-05-06 21:11 | 23.01148 | 111.93243 | 36929 ft | 532 kts | 80° |
| 2026-05-06 21:11 | 23.02003 | 112.01217 | 36930 ft | 531 kts | 80° |
| 2026-05-06 21:12 | 23.02855 | 112.09206 | 36937 ft | 531 kts | 81° |
| 2026-05-06 21:12 | 23.03697 | 112.17141 | 36936 ft | 532 kts | 81° |
| 2026-05-06 21:13 | 23.04541 | 112.25129 | 36935 ft | 532 kts | 81° |
| 2026-05-06 21:13 | 23.05381 | 112.33115 | 36942 ft | 532 kts | 81° |
| 2026-05-06 21:14 | 23.06218 | 112.41115 | 36934 ft | 533 kts | 81° |
| 2026-05-06 21:14 | 23.06969 | 112.49125 | 36938 ft | 534 kts | 85° |
| 2026-05-06 21:15 | 23.07021 | 112.57200 | 36938 ft | 535 kts | 88° |
| 2026-05-06 21:15 | 23.06998 | 112.65291 | 36939 ft | 535 kts | 88° |
| 2026-05-06 21:16 | 23.06981 | 112.73317 | 36937 ft | 535 kts | 88° |
| 2026-05-06 21:16 | 23.06923 | 112.81402 | 36938 ft | 535 kts | 88° |
| 2026-05-06 21:17 | 23.06848 | 112.89486 | 36943 ft | 535 kts | 88° |
| 2026-05-06 21:17 | 23.06774 | 112.97567 | 36941 ft | 535 kts | 88° |
| 2026-05-06 21:18 | 23.06711 | 113.05642 | 36933 ft | 534 kts | 87° |
| 2026-05-06 21:18 | 23.07242 | 113.09603 | 36940 ft | 528 kts | 71° |
| 2026-05-06 21:18 | 23.08631 | 113.13244 | 36940 ft | 518 kts | 56° |
| 2026-05-06 21:18 | 23.10781 | 113.16341 | 36938 ft | 508 kts | 40° |
| 2026-05-06 21:19 | 23.13522 | 113.18684 | 36944 ft | 498 kts | 25° |
| 2026-05-06 21:19 | 23.16660 | 113.20140 | 36945 ft | 486 kts | 10° |
| 2026-05-06 21:19 | 23.19964 | 113.20627 | 36936 ft | 475 kts | 354° |
| 2026-05-06 21:19 | 23.23201 | 113.20128 | 36972 ft | 466 kts | 339° |
| 2026-05-06 21:20 | 23.26120 | 113.18704 | 36959 ft | 458 kts | 324° |
| 2026-05-06 21:20 | 23.30208 | 113.13630 | 36960 ft | 452 kts | 294° |
| 2026-05-06 21:20 | 23.31088 | 113.10358 | 36954 ft | 454 kts | 279° |
| 2026-05-06 21:21 | 23.31069 | 113.06909 | 36954 ft | 460 kts | 263° |
| 2026-05-06 21:21 | 23.30146 | 113.03566 | 36951 ft | 468 kts | 248° |
| 2026-05-06 21:21 | 23.28366 | 113.00563 | 36946 ft | 478 kts | 233° |
| 2026-05-06 21:21 | 23.25856 | 112.98152 | 36942 ft | 488 kts | 218° |
| 2026-05-06 21:22 | 23.22777 | 112.96515 | 36931 ft | 499 kts | 202° |
| 2026-05-06 21:22 | 23.19493 | 112.95798 | 36933 ft | 510 kts | 188° |
| 2026-05-06 21:22 | 23.15939 | 112.95973 | 36943 ft | 518 kts | 175° |
| 2026-05-06 21:22 | 23.12428 | 112.96959 | 36935 ft | 526 kts | 161° |
| 2026-05-06 21:23 | 23.09192 | 112.98855 | 36944 ft | 532 kts | 146° |
| 2026-05-06 21:23 | 23.06457 | 113.01574 | 36942 ft | 536 kts | 131° |
| 2026-05-06 21:23 | 23.04438 | 113.04868 | 36942 ft | 537 kts | 116° |
| 2026-05-06 21:23 | 23.03180 | 113.08671 | 36937 ft | 536 kts | 101° |
| 2026-05-06 21:24 | 23.02812 | 113.12670 | 36929 ft | 532 kts | 85° |
| 2026-05-06 21:24 | 23.03352 | 113.16617 | 36939 ft | 526 kts | 70° |
| 2026-05-06 21:24 | 23.04755 | 113.20248 | 36933 ft | 518 kts | 55° |
| 2026-05-06 21:24 | 23.06913 | 113.23327 | 36935 ft | 508 kts | 40° |
| 2026-05-06 21:25 | 23.09663 | 113.25655 | 36937 ft | 497 kts | 25° |
| 2026-05-06 21:25 | 23.12808 | 113.27094 | 36942 ft | 486 kts | 9° |
| 2026-05-06 21:25 | 23.16118 | 113.27561 | 36939 ft | 475 kts | 354° |
| 2026-05-06 21:26 | 23.22257 | 113.25595 | 36964 ft | 458 kts | 324° |
| 2026-05-06 21:26 | 23.26325 | 113.20459 | 36956 ft | 452 kts | 293° |
| 2026-05-06 21:27 | 23.27243 | 113.14899 | 36958 ft | 457 kts | 268° |
| 2026-05-06 21:27 | 23.26612 | 113.11491 | 36960 ft | 462 kts | 255° |
| 2026-05-06 21:27 | 23.25981 | 113.08094 | 36951 ft | 458 kts | 270° |
| 2026-05-06 21:27 | 23.26256 | 113.04660 | 36953 ft | 455 kts | 285° |
| 2026-05-06 21:28 | 23.27412 | 113.01482 | 36948 ft | 453 kts | 300° |
| 2026-05-06 21:28 | 23.29358 | 112.98792 | 36949 ft | 455 kts | 315° |
| 2026-05-06 21:28 | 23.31947 | 112.96800 | 36941 ft | 460 kts | 331° |
| 2026-05-06 21:28 | 23.34955 | 112.95672 | 36944 ft | 468 kts | 346° |
| 2026-05-06 21:29 | 23.38228 | 112.95481 | 36943 ft | 477 kts | 1° |
| 2026-05-06 21:29 | 23.41496 | 112.96282 | 36946 ft | 488 kts | 16° |
| 2026-05-06 21:29 | 23.44516 | 112.98036 | 36946 ft | 499 kts | 31° |